Eelde, Netherlands

5:31 PM CEST on September 02, 2014 (GMT +0200)
Eelde | Change Station
CLOSE
Current Station
Airport
Location: Eelde,
Elevation: 13 ft
Nearby Weather Stations

Elev 13 ft 53.12 °N, 6.58 °E | Updated 6 minutes ago

Mostly Cloudy
Mostly Cloudy
68 °F
Feels Like 68 °F
N
5
Wind Variable Wind from NNE

Today
High -- | Low -- °F
--% Chance of Precip.
Yesterday
High -- | Low -- °F
Precip. -- in
6:44 AM 8:20 PM
First Quarter, 52% visible
Pressure 30.21 in
Visibility 6.2 miles
Clouds Mostly Cloudy 4900 ft
Dew Point 61 °F
Humidity 78%
Rainfall 0.00 in
Snow Depth Not available.
UV 1 out of 12
Pollen Not available.
Air Quality Not available.
Flu Activity Not available.
METAR EHGG 021525Z AUTO 03004KT 360V070 9999 BKN049 20/16 Q1023 NOSIG

More Conditions Fewer Conditions

Pressure 30.21 in
Visibility 6.2 miles
Clouds Mostly Cloudy 4900 ft
Dew Point 61 °F
Humidity 78%
Rainfall 0.00 in
Snow Depth Not available.
UV 1 out of 12
Pollen Not available.
Air Quality Not available.
Flu Activity Not available.
METAR EHGG 021525Z AUTO 03004KT 360V070 9999 BKN049 20/16 Q1023 NOSIG

More Conditions Fewer Conditions

10-Day Weather Forecast

Almanac

Astronomy

Sep. 02, 2014 Rise Set
Actual Time 6:44 AM CEST 8:20 PM CEST
Civil Twilight 6:08 AM CEST 8:56 PM CEST
Nautical Twilight 5:23 AM CEST 9:41 PM CEST
Astronomical Twilight 4:33 AM CEST 10:31 PM CEST
Moon 3:12 PM CEST No Moon Set
Length of Visible Light 14h 48m
Length of Day
13h 35m
Tomorrow will be 4m 5s shorter.
First Quarter, 52% of the Moon is Illuminated
Today
First Quarter
Sep 8
Full
Sep 15
Last Quarter
Sep 24
New
Oct 1
First Quarter

Today's Extremes

Country Highs Country Lows

Community

WunderPhotos

Upload Photos

1,749,700 photos uploaded!

Nearby

Snow Depth

Not available.

Earthquake Activity

City Distance Mag. Time & Date
No recent earthquake activity has been reported nearby.
Minimum magnitude displayed is 2.5.

Coastal Water Temperatures

Place Temperature
No Stations Reporting

Nearby Weather Stations